Izegem, Belgium
Current Conditions -  °F | °C
As of 8:00 PM on Thursday 30 Oct 2014 (Local Time) from LFQQ Reporting Station
Clear Clear  
Wind Chill: 57°   Ceiling: Unl
Heat Index: 57°   Visibility: 6mi
Dew Point: 55°   Wind: 8mph
Humidity: 94%   Direction: 160°SSE
Pressure: 30.15"   Gusts: NA
Location:  50.91°N, 3.21°E
Report Text: LFQQ 301900Z 16007KT CAVOK 14/13 Q1021 NOSIG
Loading
Personal Weather Stations






























Interactive Weather Map
Tropical Storm Tracking
New forecast layout! Learn more

10-Day Weather Forecast

Advertisements
Track Severe Weather on mobile